Time;durP1;ratioP1;P1;durP2;ratioP2;P2;SDS_P1;SDS_P2;PMS_P1;PMS_P2;Temp;Humidity;BMP_temperature;BMP_pressure;BME280_temperature;BME280_humidity;BME280_pressure;Samples;Min_cycle;Max_cycle;Signal;HPM_P1;HPM_P2
2022/09/25 00:01:07;;;;;;;;;8.50;5.00;;;;;16.10;57.37;100831.91;5090109;27;45404;-39
2022/09/25 00:03:32;;;;;;;;;3.75;3.75;;;;;16.10;57.37;100843.31;5085002;27;45398;-40
2022/09/25 00:06:11;;;;;;;;;7.50;4.00;;;;;16.09;57.06;100848.69;5086764;27;45312;-39
2022/09/25 00:08:37;;;;;;;;;3.00;3.00;;;;;16.08;57.09;100842.56;5091443;27;45780;-38
2022/09/25 00:11:07;;;;;;;;;5.50;5.00;;;;;16.07;57.48;100853.19;5092688;27;45323;-39
2022/09/25 00:13:33;;;;;;;;;6.75;5.75;;;;;16.08;57.51;100852.25;5092011;27;45217;-38
2022/09/25 00:15:58;;;;;;;;;4.25;4.25;;;;;16.10;57.24;100853.03;5090544;27;45632;-39
2022/09/25 00:21:13;;;;;;;;;4.50;4.50;;;;;16.10;56.98;100861.81;5094849;27;45320;-38
2022/09/25 00:23:40;;;;;;;;;4.50;3.25;;;;;16.09;57.34;100854.81;5094624;27;45544;-38
2022/09/25 00:26:07;;;;;;;;;5.00;3.75;;;;;16.04;57.38;100853.31;5093122;27;45318;-39
2022/09/25 00:28:35;;;;;;;;;3.75;3.75;;;;;16.02;57.45;100863.94;5095466;27;45784;-39
2022/09/25 00:31:03;;;;;;;;;4.00;4.00;;;;;16.02;57.40;100861.31;5090552;27;45309;-38
2022/09/25 00:33:29;;;;;;;;;6.00;3.00;;;;;16.03;57.29;100864.81;5095091;27;45561;-38
2022/09/25 00:35:54;;;;;;;;;5.25;4.00;;;;;16.03;57.54;100870.09;5096807;27;46275;-38
2022/09/25 00:38:20;;;;;;;;;6.50;4.00;;;;;15.98;57.70;100866.81;5078139;27;57600;-39
2022/09/25 00:40:45;;;;;;;;;4.50;4.50;;;;;15.93;57.44;100857.31;5087291;27;68283;-39
2022/09/25 00:43:33;;;;;;;;;6.00;4.75;;;;;15.91;57.60;100856.53;5083404;27;68789;-37
2022/09/25 00:46:01;;;;;;;;;7.25;4.75;;;;;15.87;57.44;100851.50;5092556;27;46376;-39
2022/09/25 00:48:26;;;;;;;;;8.00;5.75;;;;;15.88;57.75;100850.56;5092565;27;45410;-39
2022/09/25 00:50:54;;;;;;;;;4.50;4.00;;;;;15.87;57.73;100855.00;5084662;27;65346;-38
2022/09/25 00:53:25;;;;;;;;;5.50;5.50;;;;;15.86;57.48;100853.25;5090941;27;54661;-39
2022/09/25 00:55:50;;;;;;;;;7.50;5.00;;;;;15.85;57.86;100848.94;5087994;27;45245;-40
2022/09/25 00:58:20;;;;;;;;;6.00;4.25;;;;;15.84;57.89;100849.84;5089004;27;71019;-39
2022/09/25 01:00:45;;;;;;;;;8.00;4.75;;;;;15.82;57.77;100846.44;5109251;27;45405;-39
2022/09/25 01:03:12;;;;;;;;;7.25;5.50;;;;;15.81;57.85;100851.78;5097536;27;45489;-39
2022/09/25 01:05:41;;;;;;;;;5.75;5.00;;;;;15.81;57.46;100850.00;5099757;27;65932;-39
2022/09/25 01:08:09;;;;;;;;;6.75;5.00;;;;;15.82;57.65;100853.50;5099126;27;45888;-39
2022/09/25 01:10:35;;;;;;;;;4.50;4.50;;;;;15.83;57.90;100853.44;5098283;27;45408;-40
2022/09/25 01:13:01;;;;;;;;;10.00;6.00;;;;;15.83;57.72;100858.72;5095501;27;45611;-39
2022/09/25 01:15:45;;;;;;;;;7.25;4.75;;;;;15.82;57.77;100846.44;5101206;27;66789;-38
2022/09/25 01:18:15;;;;;;;;;5.75;5.25;;;;;15.81;57.69;100852.66;5081005;27;45364;-41
2022/09/25 01:21:05;;;;;;;;;3.75;3.75;;;;;15.82;57.89;100856.97;5103877;27;45420;-37
2022/09/25 01:23:46;;;;;;;;;7.50;5.25;;;;;15.79;57.99;100851.84;5097971;27;45409;-38
2022/09/25 01:26:44;;;;;;;;;3.25;3.25;;;;;15.74;57.77;100852.06;5095325;27;46263;-38
2022/09/25 01:29:30;;;;;;;;;5.50;4.75;;;;;15.71;58.09;100849.53;5098985;27;45973;-38
2022/09/25 01:32:12;;;;;;;;;9.00;6.75;;;;;15.69;58.34;100848.75;5100251;27;45322;-38
2022/09/25 01:35:19;;;;;;;;;8.50;4.75;;;;;15.66;57.78;100848.06;5090947;27;45456;-38
2022/09/25 01:37:59;;;;;;;;;7.75;4.25;;;;;15.66;58.52;100848.06;5094025;27;46091;-37
2022/09/25 01:40:34;;;;;;;;;5.50;5.50;;;;;15.64;58.21;100848.13;5083587;27;45769;-38
2022/09/25 01:43:13;;;;;;;;;7.75;5.00;;;;;15.65;58.18;100848.97;5097495;27;45213;-38
2022/09/25 01:45:43;;;;;;;;;4.75;4.50;;;;;15.63;58.00;100845.53;5103632;27;45770;-38
2022/09/25 01:48:09;;;;;;;;;4.00;4.00;;;;;15.61;58.21;100842.97;5093957;27;46386;-38
2022/09/25 01:50:48;;;;;;;;;6.75;4.75;;;;;15.60;58.72;100845.69;5100048;27;45766;-38
2022/09/25 01:53:19;;;;;;;;;7.00;5.75;;;;;15.58;58.72;100848.38;5100192;27;45454;-39
2022/09/25 01:55:53;;;;;;;;;4.75;4.50;;;;;15.57;58.55;100844.06;5094440;27;45257;-38
2022/09/25 01:58:33;;;;;;;;;4.75;4.75;;;;;15.58;58.66;100851.03;5104580;27;48733;-39
2022/09/25 02:01:04;;;;;;;;;7.00;5.00;;;;;15.57;58.86;100844.06;5094114;27;45500;-39
2022/09/25 02:03:36;;;;;;;;;7.25;6.00;;;;;15.57;58.44;100851.97;5090751;27;45310;-38
2022/09/25 02:06:05;;;;;;;;;6.00;5.75;;;;;15.56;59.22;100853.75;5099658;27;45284;-38
2022/09/25 02:08:39;;;;;;;;;4.50;4.00;;;;;15.54;58.67;100852.94;5093981;27;46445;-39
2022/09/25 02:11:06;;;;;;;;;4.00;4.00;;;;;15.58;58.97;100864.22;5101081;27;45183;-39
2022/09/25 02:13:36;;;;;;;;;6.75;5.00;;;;;15.57;58.90;100863.38;5093670;27;50816;-38
2022/09/25 02:16:07;;;;;;;;;7.50;4.75;;;;;15.59;58.87;100859.81;5099431;27;45505;-38
2022/09/25 02:21:35;;;;;;;;;6.00;5.00;;;;;15.55;59.04;100852.03;5096834;27;45434;-39
2022/09/25 02:24:15;;;;;;;;;7.75;5.75;;;;;15.53;59.25;100851.25;5092553;27;45468;-39
2022/09/25 02:26:40;;;;;;;;;4.50;4.50;;;;;15.49;59.57;100848.81;5097525;27;45236;-38
2022/09/25 02:29:07;;;;;;;;;6.50;5.50;;;;;15.46;59.76;100856.88;5094134;27;69942;-39
2022/09/25 02:31:58;;;;;;;;;4.75;4.75;;;;;15.42;58.97;100855.28;5099590;27;45224;-39
2022/09/25 02:34:23;;;;;;;;;6.25;6.00;;;;;15.40;59.36;100858.00;5087413;27;45363;-39
2022/09/25 02:36:49;;;;;;;;;6.25;4.75;;;;;15.35;59.13;100845.03;5098314;27;72942;-41
2022/09/25 02:39:17;;;;;;;;;4.75;4.75;;;;;15.36;59.03;100849.38;5092213;27;46955;-39
2022/09/25 02:41:55;;;;;;;;;6.75;5.50;;;;;15.36;59.24;100848.53;5094420;27;45921;-38
2022/09/25 02:44:48;;;;;;;;;9.00;4.50;;;;;15.36;59.14;100856.44;5094796;27;45221;-38
2022/09/25 02:47:13;;;;;;;;;6.25;5.00;;;;;15.37;59.47;100853.72;5093914;27;45223;-39
2022/09/25 02:49:46;;;;;;;;;5.67;5.00;;;;;15.36;59.60;100854.63;5087178;27;45315;-38
2022/09/25 02:52:19;;;;;;;;;10.25;5.50;;;;;15.36;59.74;100856.44;5094100;27;45425;-38
2022/09/25 02:54:55;;;;;;;;;6.00;5.00;;;;;15.36;59.60;100859.06;5091798;27;45529;-38
2022/09/25 02:57:23;;;;;;;;;6.25;5.00;;;;;15.34;59.97;100861.78;5092941;27;45497;-39
2022/09/25 02:59:53;;;;;;;;;6.50;5.50;;;;;15.34;59.36;100872.31;5091595;27;45393;-39
2022/09/25 03:02:20;;;;;;;;;6.50;5.00;;;;;15.33;59.77;100865.34;5091868;27;45893;-38
2022/09/25 03:04:47;;;;;;;;;6.50;6.50;;;;;15.31;59.96;100867.16;5094672;27;45358;-38
2022/09/25 03:07:14;;;;;;;;;6.50;5.25;;;;;15.29;59.83;100865.53;5092679;27;45721;-39
2022/09/25 03:09:45;;;;;;;;;4.75;4.00;;;;;15.28;59.51;100869.97;5098453;27;45399;-38
2022/09/25 03:12:11;;;;;;;;;6.50;5.25;;;;;15.29;60.31;100868.19;5093099;27;45741;-39
2022/09/25 03:14:37;;;;;;;;;10.00;4.75;;;;;15.25;60.12;100862.19;5100453;27;45226;-38
2022/09/25 03:17:03;;;;;;;;;7.75;6.25;;;;;15.21;59.75;100860.63;5092843;27;63236;-38
2022/09/25 03:19:30;;;;;;;;;6.00;4.50;;;;;15.28;60.15;100877.00;5095764;27;46071;-39
2022/09/25 03:21:56;;;;;;;;;6.25;3.50;;;;;15.29;60.27;100873.44;5097065;27;45661;-38
2022/09/25 03:24:22;;;;;;;;;6.75;6.25;;;;;15.27;59.85;100878.78;5101675;27;45520;-38
2022/09/25 03:26:47;;;;;;;;;4.75;3.50;;;;;15.28;60.07;100882.28;5098411;27;45343;-37
2022/09/25 03:29:13;;;;;;;;;4.25;4.25;;;;;15.26;60.29;100886.75;5095036;27;46286;-37
2022/09/25 03:31:41;;;;;;;;;8.25;6.00;;;;;15.23;60.07;100887.78;5106759;27;45837;-38
2022/09/25 03:34:06;;;;;;;;;6.00;5.75;;;;;15.22;60.28;100882.56;5081074;27;45618;-38
2022/09/25 03:36:32;;;;;;;;;10.00;5.50;;;;;15.17;60.89;100890.66;5098314;27;48467;-38
2022/09/25 03:38:58;;;;;;;;;8.25;5.50;;;;;15.11;60.24;100880.41;5097819;27;46037;-38
2022/09/25 03:41:26;;;;;;;;;7.75;6.25;;;;;15.12;60.33;100882.09;5095984;27;45396;-37
2022/09/25 03:43:52;;;;;;;;;9.00;7.50;;;;;15.12;60.84;100890.00;5095229;27;45508;-38
2022/09/25 03:46:23;;;;;;;;;7.75;5.50;;;;;15.08;60.26;100888.44;5091999;27;45322;-38
2022/09/25 03:48:49;;;;;;;;;12.00;7.75;;;;;15.05;60.48;100889.44;5093515;27;46242;-38
2022/09/25 03:51:14;;;;;;;;;12.75;8.25;;;;;15.04;60.17;100895.63;5095846;27;45175;-38
2022/09/25 03:53:40;;;;;;;;;9.00;7.75;;;;;15.04;60.57;100895.63;5126220;27;45296;-39
2022/09/25 03:56:09;;;;;;;;;6.50;6.50;;;;;15.03;60.94;100895.69;5087370;27;45589;-38
2022/09/25 03:58:34;;;;;;;;;12.25;7.25;;;;;14.99;60.55;100893.16;5098419;27;46360;-39
2022/09/25 04:01:00;;;;;;;;;11.50;7.25;;;;;14.98;61.21;100896.75;5098191;27;45345;-38
2022/09/25 04:03:31;;;;;;;;;6.50;5.25;;;;;15.00;60.87;100888.78;5093026;27;45306;-38
2022/09/25 04:06:03;;;;;;;;;6.75;5.25;;;;;15.03;60.85;100896.53;5097710;27;45437;-38
2022/09/25 04:08:30;;;;;;;;;6.25;5.50;;;;;15.03;60.85;100896.53;5085635;27;46360;-38
2022/09/25 04:10:58;;;;;;;;;11.00;8.25;;;;;15.06;60.41;100899.03;5124306;27;45285;-38
2022/09/25 04:13:24;;;;;;;;;8.50;6.25;;;;;15.07;60.73;100894.59;5099662;27;45358;-38
2022/09/25 04:15:50;;;;;;;;;9.75;7.00;;;;;15.07;60.39;100899.88;5090677;27;45422;-38
2022/09/25 04:18:15;;;;;;;;;7.75;6.00;;;;;15.09;60.58;100903.34;5090826;27;46894;-38
2022/09/25 04:20:41;;;;;;;;;8.25;6.50;;;;;15.09;60.25;100903.34;5091227;27;45334;-38
2022/09/25 04:23:06;;;;;;;;;8.00;6.00;;;;;15.10;60.42;100897.13;5088000;27;53497;-37
2022/09/25 04:25:31;;;;;;;;;9.25;8.00;;;;;15.11;60.49;100901.47;5080613;27;45645;-38
2022/09/25 04:27:57;;;;;;;;;11.50;9.25;;;;;15.11;60.49;100901.47;5096924;27;45932;-37
2022/09/25 04:30:25;;;;;;;;;6.00;6.00;;;;;15.12;60.54;100897.91;5097170;27;45270;-38
2022/09/25 04:35:34;;;;;;;;;11.25;10.50;;;;;15.09;60.54;100898.06;5097879;27;45451;-38
2022/09/25 04:38:00;;;;;;;;;9.25;8.50;;;;;15.07;60.82;100900.75;5090017;27;75620;-38
2022/09/25 04:40:26;;;;;;;;;9.25;9.25;;;;;15.06;60.53;100899.03;5100801;27;45401;-38
2022/09/25 04:42:59;;;;;;;;;15.75;13.25;;;;;15.05;60.66;100904.38;5101528;27;45322;-38
2022/09/25 04:45:27;;;;;;;;;10.75;9.50;;;;;15.04;60.65;100908.78;5098404;27;45181;-46
2022/09/25 04:47:53;;;;;;;;;13.75;11.75;;;;;15.04;60.39;100905.31;5101013;27;46154;-38
2022/09/25 04:50:20;;;;;;;;;14.00;9.75;;;;;15.04;60.67;100911.44;5095919;27;45490;-38
2022/09/25 04:52:45;;;;;;;;;18.25;10.50;;;;;15.04;60.64;100914.06;5102332;27;45312;-39
2022/09/25 04:55:11;;;;;;;;;14.25;13.25;;;;;15.05;60.11;100910.53;5098052;27;45389;-39
2022/09/25 04:57:36;;;;;;;;;12.00;11.50;;;;;15.06;60.02;100914.00;5098578;27;47196;-38
2022/09/25 05:00:03;;;;;;;;;17.50;12.50;;;;;15.07;60.20;100923.59;5092514;27;45393;-39
2022/09/25 05:02:28;;;;;;;;;14.00;12.25;;;;;15.06;60.02;100925.38;5096145;27;45217;-38
2022/09/25 05:04:54;;;;;;;;;11.25;9.75;;;;;15.05;60.35;100930.72;5114581;27;45445;-38
2022/09/25 05:07:19;;;;;;;;;15.75;12.50;;;;;15.03;60.40;100928.16;5095334;27;45353;-39
2022/09/25 05:09:44;;;;;;;;;12.75;10.25;;;;;15.03;60.00;100936.06;5100376;27;52200;-38
2022/09/25 05:12:10;;;;;;;;;19.00;11.75;;;;;15.01;60.23;100935.28;5093310;27;63152;-38
2022/09/25 05:14:35;;;;;;;;;14.50;12.00;;;;;15.02;60.07;100936.16;5105307;27;71812;-38
2022/09/25 05:17:00;;;;;;;;;16.75;11.25;;;;;15.03;59.96;100932.56;5096969;27;46708;-38
2022/09/25 05:19:26;;;;;;;;;14.50;11.00;;;;;15.01;60.40;100937.91;5097114;27;51893;-37
2022/09/25 05:21:52;;;;;;;;;14.00;10.25;;;;;14.98;59.64;100936.28;5097957;27;45315;-37
2022/09/25 05:24:17;;;;;;;;;11.75;9.50;;;;;14.96;60.38;100935.47;5099577;27;45465;-37
2022/09/25 05:26:43;;;;;;;;;16.00;10.25;;;;;14.93;60.08;100937.38;5099281;27;74529;-38
2022/09/25 05:29:09;;;;;;;;;14.00;10.25;;;;;14.91;59.90;100937.44;5096617;27;70667;-37
2022/09/25 05:31:35;;;;;;;;;9.00;6.00;;;;;14.89;60.00;100939.31;5091769;27;45559;-38
2022/09/25 05:34:00;;;;;;;;;14.25;9.50;;;;;14.89;59.74;100948.97;5103131;27;45457;-37
2022/09/25 05:36:26;;;;;;;;;15.50;10.50;;;;;14.89;59.65;100944.56;5094602;27;46594;-38
2022/09/25 05:38:52;;;;;;;;;15.00;11.00;;;;;14.89;60.03;100935.78;5096182;27;45389;-39
2022/09/25 05:41:18;;;;;;;;;11.75;9.75;;;;;14.88;59.90;100940.22;5093138;27;45250;-38
2022/09/25 05:43:46;;;;;;;;;10.75;8.00;;;;;14.86;60.17;100938.56;5089679;27;57257;-39
2022/09/25 05:46:12;;;;;;;;;12.25;9.00;;;;;14.85;59.80;100948.22;5085903;27;47135;-38
2022/09/25 05:48:37;;;;;;;;;10.25;7.50;;;;;14.79;60.00;100949.34;5101764;27;45353;-39
2022/09/25 05:51:03;;;;;;;;;11.50;10.50;;;;;14.77;59.95;100950.34;5099346;27;45338;-38
2022/09/25 05:53:29;;;;;;;;;8.50;6.00;;;;;14.74;60.21;100951.31;5096671;27;45341;-38
2022/09/25 05:56:00;;;;;;;;;10.50;10.25;;;;;14.73;59.74;100949.63;5086423;27;46838;-40
2022/09/25 05:58:27;;;;;;;;;11.25;9.75;;;;;14.70;59.97;100957.63;5087901;27;45478;-39
2022/09/25 06:00:53;;;;;;;;;12.50;10.00;;;;;14.69;59.87;100960.31;5088197;27;45544;-39
2022/09/25 06:03:19;;;;;;;;;13.00;10.50;;;;;14.66;59.75;100963.97;5092281;27;45468;-39
2022/09/25 06:05:45;;;;;;;;;12.75;10.00;;;;;14.64;60.12;100967.56;5106782;27;46445;-39
2022/09/25 06:08:10;;;;;;;;;8.00;7.00;;;;;14.64;60.01;100964.91;5094473;27;45360;-39
2022/09/25 06:10:36;;;;;;;;;13.00;11.00;;;;;14.65;59.71;100972.75;5082396;27;45260;-39
2022/09/25 06:13:03;;;;;;;;;11.25;10.25;;;;;14.64;59.96;100975.44;5096170;27;62464;-46
2022/09/25 06:15:35;;;;;;;;;9.00;8.25;;;;;14.62;59.69;100967.59;5096613;27;47264;-39
2022/09/25 06:18:00;;;;;;;;;12.25;9.25;;;;;14.58;60.14;100972.16;5082651;27;45806;-39
2022/09/25 06:20:26;;;;;;;;;10.75;8.75;;;;;14.54;60.18;100973.16;5097349;27;68311;-39
2022/09/25 06:22:53;;;;;;;;;10.00;7.25;;;;;14.53;59.43;100983.75;5090456;27;45501;-39
2022/09/25 06:25:18;;;;;;;;;8.25;7.00;;;;;14.44;59.52;100977.06;5095278;27;45932;-39
2022/09/25 06:27:44;;;;;;;;;8.00;7.00;;;;;14.40;59.64;100984.22;5088834;27;45347;-39
2022/09/25 06:30:09;;;;;;;;;5.50;5.00;;;;;14.36;59.71;100981.75;5098012;27;67044;-39
2022/09/25 06:32:35;;;;;;;;;6.50;6.50;;;;;14.31;60.04;100978.47;5099396;27;45400;-39
2022/09/25 06:35:00;;;;;;;;;9.75;7.25;;;;;14.26;59.63;100980.44;5093216;27;72281;-39
2022/09/25 06:37:25;;;;;;;;;12.75;7.00;;;;;14.21;59.84;100986.72;5089547;27;63931;-39
2022/09/25 06:39:51;;;;;;;;;11.50;9.75;;;;;14.18;59.71;100984.22;5090120;27;66466;-39
2022/09/25 06:42:16;;;;;;;;;5.25;5.25;;;;;14.15;59.66;100981.69;5092438;27;68863;-39
2022/09/25 06:44:42;;;;;;;;;10.25;8.50;;;;;14.15;59.57;100986.97;5111285;27;70774;-40
2022/09/25 06:47:11;;;;;;;;;9.00;6.25;;;;;14.12;59.39;100980.94;5099897;27;45541;-40
2022/09/25 06:49:36;;;;;;;;;8.25;6.50;;;;;14.09;60.01;100983.69;5093779;27;45298;-39
2022/09/25 06:52:02;;;;;;;;;9.75;5.75;;;;;14.07;59.66;100983.75;5093627;27;45555;-39
2022/09/25 06:54:30;;;;;;;;;10.75;7.25;;;;;14.04;59.42;100976.84;5094441;27;46098;-39
2022/09/25 06:56:55;;;;;;;;;12.00;7.00;;;;;14.03;59.72;100984.78;5093732;27;45431;-39
2022/09/25 06:59:20;;;;;;;;;6.75;6.00;;;;;14.04;59.54;100981.22;5089649;27;66193;-39
2022/09/25 07:01:45;;;;;;;;;6.00;6.00;;;;;14.07;59.74;100982.91;5088275;27;72246;-39
2022/09/25 07:04:12;;;;;;;;;5.50;5.00;;;;;14.07;59.45;100986.38;5086844;27;45164;-38
2022/09/25 07:06:37;;;;;;;;;9.75;6.50;;;;;14.07;59.46;100985.53;5096657;27;45340;-39
2022/09/25 07:09:03;;;;;;;;;6.75;6.25;;;;;14.09;59.62;100992.44;5100080;27;45250;-39
2022/09/25 07:11:30;;;;;;;;;5.25;4.50;;;;;14.08;59.33;100989.84;5098321;27;45592;-39
2022/09/25 07:13:56;;;;;;;;;8.50;5.00;;;;;14.08;59.15;100997.75;5107857;27;46806;-39
2022/09/25 07:16:26;;;;;;;;;7.00;6.00;;;;;14.08;59.15;100996.00;5093250;27;45455;-39
2022/09/25 07:18:53;;;;;;;;;6.75;5.25;;;;;14.08;59.62;100996.00;5091758;27;45359;-39
2022/09/25 07:21:20;;;;;;;;;8.50;5.00;;;;;14.07;59.45;100996.91;5098459;27;45446;-39
2022/09/25 07:23:50;;;;;;;;;6.75;6.00;;;;;14.07;59.18;100991.63;5097286;27;46118;-40
2022/09/25 07:26:22;;;;;;;;;7.25;4.50;;;;;14.07;59.38;100993.41;5094646;27;45929;-39
2022/09/25 07:28:59;;;;;;;;;6.50;5.00;;;;;14.06;59.16;100997.84;5087473;27;45339;-38
2022/09/25 07:31:29;;;;;;;;;7.00;5.25;;;;;14.04;59.28;101002.28;5094004;27;45503;-39
2022/09/25 07:33:57;;;;;;;;;6.25;5.00;;;;;14.04;59.58;101000.53;5084919;27;45518;-39
2022/09/25 07:36:23;;;;;;;;;7.00;3.00;;;;;14.05;59.19;101007.47;5104937;27;45290;-39
2022/09/25 07:38:49;;;;;;;;;6.00;5.50;;;;;14.08;59.61;101003.00;5097790;27;45317;-38
2022/09/25 07:41:15;;;;;;;;;11.00;5.75;;;;;14.09;59.55;101008.22;5085994;27;45319;-38
2022/09/25 07:43:42;;;;;;;;;9.00;6.75;;;;;14.13;59.45;101008.97;5122056;27;46066;-38
2022/09/25 07:46:08;;;;;;;;;6.00;4.25;;;;;14.17;59.11;101021.13;5087639;27;45905;-38
2022/09/25 07:48:33;;;;;;;;;6.75;4.75;;;;;14.20;59.19;101019.22;5097691;27;48605;-45
2022/09/25 07:51:03;;;;;;;;;5.50;5.00;;;;;14.24;59.21;101019.97;5093407;27;45453;-38
2022/09/25 07:53:29;;;;;;;;;6.00;4.50;;;;;14.29;59.08;101020.66;5080119;27;46521;-39
2022/09/25 07:55:58;;;;;;;;;6.25;4.00;;;;;14.34;59.15;101017.84;5090710;27;45452;-39
2022/09/25 07:58:25;;;;;;;;;6.25;5.50;;;;;14.39;58.95;101023.78;5088983;27;45272;-39
2022/09/25 08:00:50;;;;;;;;;4.00;4.00;;;;;14.40;58.59;101012.34;5096120;27;45265;-39
2022/09/25 08:03:16;;;;;;;;;4.75;4.00;;;;;14.46;58.95;101020.00;5098373;27;47436;-39
2022/09/25 08:05:41;;;;;;;;;3.50;2.75;;;;;14.49;59.03;101011.13;5099094;27;50708;-38
2022/09/25 08:08:07;;;;;;;;;4.75;3.00;;;;;14.52;58.68;101011.00;5099265;27;45220;-38
2022/09/25 08:10:32;;;;;;;;;5.00;3.25;;;;;14.56;58.63;101013.47;5098967;27;45272;-38
2022/09/25 08:12:57;;;;;;;;;4.00;3.00;;;;;14.57;58.45;101007.28;5090694;27;68665;-38
2022/09/25 08:15:24;;;;;;;;;4.25;4.25;;;;;14.63;58.45;101006.22;5101521;27;45345;-39
2022/09/25 08:17:50;;;;;;;;;4.00;2.50;;;;;14.67;58.05;101013.06;5098020;27;45480;-38
2022/09/25 08:20:15;;;;;;;;;4.00;2.25;;;;;14.73;58.12;101011.97;5099275;27;45485;-38
2022/09/25 08:22:40;;;;;;;;;4.50;2.50;;;;;14.77;58.29;101017.06;5094486;27;45231;-38
2022/09/25 08:25:07;;;;;;;;;2.25;1.50;;;;;14.83;58.01;101018.59;5117466;27;70345;-38
2022/09/25 08:27:39;;;;;;;;;3.00;2.00;;;;;14.88;57.66;101019.25;5098479;27;45422;-38
2022/09/25 08:30:07;;;;;;;;;4.25;2.50;;;;;14.94;57.42;101019.03;5096427;27;45312;-38
2022/09/25 08:32:33;;;;;;;;;3.50;1.50;;;;;14.99;57.37;101024.09;5098303;27;47071;-38
2022/09/25 08:34:59;;;;;;;;;5.25;1.50;;;;;15.02;57.29;101020.50;5088022;27;45297;-39
2022/09/25 08:37:24;;;;;;;;;3.00;2.00;;;;;15.05;56.93;101023.84;5099857;27;45470;-38
2022/09/25 08:39:50;;;;;;;;;5.00;1.75;;;;;15.05;56.66;101025.59;5098575;27;63208;-38
2022/09/25 08:42:20;;;;;;;;;4.50;2.00;;;;;15.05;56.88;101021.22;5097622;27;74701;-39
2022/09/25 08:50:36;;;;;;;;;2.25;2.00;;;;;15.17;56.53;101018.06;5102467;27;45205;-38
2022/09/25 08:53:09;;;;;;;;;1.25;1.25;;;;;15.25;56.42;101016.91;5097703;27;46322;-38
2022/09/25 08:58:25;;;;;;;;;1.75;1.75;;;;;15.36;55.47;101019.94;5095392;27;45477;-40
2022/09/25 09:01:00;;;;;;;;;6.00;5.50;;;;;15.42;55.87;101013.53;5095132;27;45480;-38
2022/09/25 09:03:29;;;;;;;;;14.25;9.75;;;;;15.47;55.59;101017.69;5097729;27;45359;-38
2022/09/25 09:06:06;;;;;;;;;2.75;1.00;;;;;15.56;55.13;101014.66;5108807;27;45476;-38
2022/09/25 09:08:35;;;;;;;;;3.50;1.50;;;;;15.60;55.14;101012.75;5095326;27;45436;-38
2022/09/25 09:11:04;;;;;;;;;4.00;1.00;;;;;15.65;54.32;101018.69;5083868;27;45319;-39
2022/09/25 09:13:29;;;;;;;;;1.00;1.00;;;;;15.71;54.87;101018.41;5101368;27;45287;-39
2022/09/25 09:16:00;;;;;;;;;2.25;0.25;;;;;15.77;53.93;101017.31;5102092;27;45436;-38
2022/09/25 09:18:37;;;;;;;;;3.75;1.00;;;;;15.83;54.56;101019.69;5094052;27;45372;-39
2022/09/25 09:21:29;;;;;;;;;2.00;1.00;;;;;15.92;53.99;101021.06;5094493;27;45239;-39
2022/09/25 09:24:03;;;;;;;;;3.50;1.00;;;;;15.96;53.48;101021.78;5098431;27;45512;-39
2022/09/25 09:26:58;;;;;;;;;1.00;1.00;;;;;16.00;53.59;101020.72;5094922;27;45353;-39
2022/09/25 09:29:49;;;;;;;;;4.00;1.00;;;;;16.07;53.23;101019.50;5098812;27;45539;-38
2022/09/25 09:32:32;;;;;;;;;1.00;1.00;;;;;16.14;52.54;101016.50;5093929;27;45240;-40
2022/09/25 09:35:12;;;;;;;;;0.75;0.00;;;;;16.20;51.35;101022.44;5093304;27;45242;-40
2022/09/25 09:37:51;;;;;;;;;1.00;1.00;;;;;16.23;50.66;101019.66;5096788;27;45272;-39
2022/09/25 09:40:22;;;;;;;;;0.50;0.25;;;;;16.26;50.91;101022.16;5085021;27;45320;-39
2022/09/25 09:43:02;;;;;;;;;4.00;1.00;;;;;16.27;50.68;101018.56;5089755;27;45312;-39
2022/09/25 09:45:54;;;;;;;;;1.00;1.00;;;;;16.28;49.07;101013.22;5094634;27;45450;-38
2022/09/25 09:48:36;;;;;;;;;2.00;0.00;;;;;16.35;49.07;101020.88;5094814;27;45276;-39
2022/09/25 09:51:08;;;;;;;;;0.50;0.00;;;;;16.38;49.32;101021.59;5088171;27;45243;-39
2022/09/25 09:53:47;;;;;;;;;0.75;0.25;;;;;16.42;48.94;101023.16;5079397;27;45448;-39
2022/09/25 09:56:25;;;;;;;;;5.25;5.25;;;;;16.48;48.83;101016.72;5088617;27;47462;-39
2022/09/25 09:58:54;;;;;;;;;2.50;2.00;;;;;16.55;49.00;101019.94;5101310;27;45273;-39
2022/09/25 10:01:22;;;;;;;;;0.00;0.00;;;;;16.61;48.46;101011.69;5108630;27;45355;-39
2022/09/25 10:03:52;;;;;;;;;3.00;0.00;;;;;16.66;48.36;101017.63;5100070;27;45479;-39
2022/09/25 10:06:19;;;;;;;;;2.00;1.00;;;;;16.72;48.68;101019.16;5099406;27;45428;-39
2022/09/25 10:08:44;;;;;;;;;1.00;1.00;;;;;16.75;48.52;101009.28;5086812;27;72058;-39
2022/09/25 10:11:17;;;;;;;;;0.75;0.00;;;;;16.82;48.10;101020.38;5093325;27;54847;-37
2022/09/25 10:13:43;;;;;;;;;3.00;1.00;;;;;16.87;48.24;101018.41;5103094;27;45476;-39
2022/09/25 10:16:17;;;;;;;;;5.25;1.00;;;;;16.94;46.84;101016.34;5099469;27;45368;-39
2022/09/25 10:18:59;;;;;;;;;1.75;0.00;;;;;16.97;47.02;101011.75;5095716;27;45480;-39
2022/09/25 10:21:32;;;;;;;;;1.00;1.00;;;;;17.01;47.31;101010.66;5087688;27;45364;-39
2022/09/25 10:23:58;;;;;;;;;1.00;1.00;;;;;17.02;45.69;101004.44;5094933;27;45592;-39
2022/09/25 10:26:29;;;;;;;;;1.75;1.00;;;;;17.04;44.95;101004.38;5095330;27;46454;-39
2022/09/25 10:28:59;;;;;;;;;2.00;0.00;;;;;17.06;44.83;100999.88;5097188;27;45391;-38
2022/09/25 10:31:28;;;;;;;;;3.75;1.00;;;;;17.10;44.40;101006.69;5094095;27;45317;-38
2022/09/25 10:34:05;;;;;;;;;0.00;0.00;;;;;17.13;46.08;100998.63;5090322;27;45600;-39
2022/09/25 10:36:30;;;;;;;;;0.00;0.00;;;;;17.19;45.50;101000.09;5098810;27;46140;-39
2022/09/25 10:38:56;;;;;;;;;2.00;0.00;;;;;17.23;45.09;101001.69;5096453;27;45377;-39
2022/09/25 10:41:23;;;;;;;;;0.50;0.50;;;;;17.29;44.87;100996.06;5092058;27;45355;-38
2022/09/25 10:43:59;;;;;;;;;2.00;1.00;;;;;17.33;45.48;100992.31;5093300;27;45268;-39
2022/09/25 10:52:21;;;;;;;;;1.50;0.00;;;;;17.49;44.86;100999.47;5088324;27;45371;-38
2022/09/25 10:54:46;;;;;;;;;0.00;0.00;;;;;17.52;44.78;101001.97;5093545;27;45283;-38
2022/09/25 10:57:34;;;;;;;;;1.50;0.00;;;;;17.55;44.21;101002.66;5065931;27;46423;-39
2022/09/25 11:00:08;;;;;;;;;3.25;1.00;;;;;17.55;42.84;101002.66;5096079;27;45683;-39
2022/09/25 11:02:37;;;;;;;;;0.00;0.00;;;;;17.57;44.50;100992.00;5088159;27;45449;-38
2022/09/25 11:05:03;;;;;;;;;3.00;1.00;;;;;17.59;43.91;100996.25;5092180;27;45333;-39
2022/09/25 11:07:29;;;;;;;;;1.00;1.00;;;;;17.62;44.54;100996.13;5090506;27;45357;-39
2022/09/25 11:09:55;;;;;;;;;0.00;0.00;;;;;17.66;43.66;101004.75;5093195;27;45284;-39
2022/09/25 11:12:25;;;;;;;;;0.75;0.00;;;;;17.66;43.73;100996.81;5092523;27;64775;-40
2022/09/25 11:14:57;;;;;;;;;1.25;0.25;;;;;17.69;42.98;101004.59;5092973;27;45457;-38
2022/09/25 11:17:40;;;;;;;;;0.25;0.25;;;;;17.71;44.14;101002.72;5102057;27;47811;-38
2022/09/25 11:20:12;;;;;;;;;1.00;1.00;;;;;17.76;43.45;101007.75;5089249;27;45554;-37
2022/09/25 11:22:39;;;;;;;;;1.75;1.00;;;;;17.80;44.09;101004.03;5091747;27;45465;-38
2022/09/25 11:25:25;;;;;;;;;0.00;0.00;;;;;17.85;44.00;101007.28;5096749;27;52016;-38
2022/09/25 11:27:58;;;;;;;;;1.50;0.50;;;;;17.88;43.34;101012.44;5095446;27;46006;-38
2022/09/25 11:30:24;;;;;;;;;1.75;1.00;;;;;17.89;43.91;101006.22;5091271;27;45379;-38
2022/09/25 11:33:09;;;;;;;;;2.50;1.00;;;;;17.93;43.71;101014.84;5076030;27;54159;-39
2022/09/25 11:35:47;;;;;;;;;4.00;1.00;;;;;17.97;43.83;101011.97;5094559;27;45427;-39
2022/09/25 11:41:26;;;;;;;;;1.50;1.00;;;;;18.04;42.83;101004.50;5089036;27;45764;-39
2022/09/25 11:44:26;;;;;;;;;2.00;1.25;;;;;18.09;43.83;101004.28;5095172;27;45371;-38
2022/09/25 11:47:14;;;;;;;;;3.25;3.25;;;;;18.10;44.23;100990.97;5092515;27;45526;-39
2022/09/25 11:49:40;;;;;;;;;9.25;5.75;;;;;18.18;43.35;100999.34;5087252;27;46155;-38
2022/09/25 11:52:15;;;;;;;;;4.00;2.50;;;;;18.24;42.13;101011.41;5096038;27;45734;-38
2022/09/25 11:55:18;;;;;;;;;3.50;2.00;;;;;18.26;41.28;100998.06;5093303;27;45516;-39
2022/09/25 11:57:55;;;;;;;;;3.00;2.00;;;;;18.27;40.79;100991.81;5102637;27;45375;-39
2022/09/25 12:00:27;;;;;;;;;1.50;1.00;;;;;18.30;41.92;100992.50;5079712;27;47075;-38